Glass Lake, New York
Current Conditions -  °F | °C
As of 2:51 AM on Monday 22 Dec 2014 (Local Time) from KALB Reporting Station
Light Snow Light Snow  
Wind Chill: 24°   Ceiling: 2800
Heat Index: 29°   Visibility: 9mi
Dew Point: 23°   Wind: 5mph
Humidity: 78%   Direction: 330°NNW
Pressure: 30.36"   Gusts: NA
Location:  42.6497°N, 73.5273°W
Report Text: KALB 220751Z 33004KT 9SM -SN BKN028 OVC041 M02/M05 A3036 RMK AO2 SNB41 SLP286 BKN V SCT P0000 T10171050
Loading
Personal Weather Stations






























Interactive Weather Map New forecast layout! Learn more

10-Day Weather Forecast

Advertisements
Track Severe Weather on mobile